Time;durP1;ratioP1;P1;durP2;ratioP2;P2;SDS_P1;SDS_P2;PMS_P1;PMS_P2;Temp;Humidity;BMP_temperature;BMP_pressure;BME280_temperature;BME280_humidity;BME280_pressure;Samples;Min_cycle;Max_cycle;Signal;HPM_P1;HPM_P2
2022/02/10 00:18:46;;;;;;;15.50;8.65;;;;;;;5.85;76.31;100825.42;2147798;82;21733;-87
2022/02/10 00:21:45;;;;;;;15.28;8.95;;;;;;;5.85;76.36;100828.06;2145521;82;21054;-84
2022/02/10 00:25:19;;;;;;;22.90;10.00;;;;;;;5.85;76.32;100830.70;2144375;82;21571;-86
2022/02/10 00:34:31;;;;;;;15.53;8.80;;;;;;;5.77;76.36;100833.56;2145604;82;21050;-86
2022/02/10 00:37:48;;;;;;;14.03;7.75;;;;;;;5.77;76.36;100833.11;2149171;82;21037;-83
2022/02/10 00:40:39;;;;;;;14.53;8.85;;;;;;;5.80;76.35;100835.50;2144855;81;22209;-83
2022/02/10 00:43:40;;;;;;;17.67;10.20;;;;;;;5.82;76.38;100840.16;2148714;82;20967;-85
2022/02/10 00:46:42;;;;;;;18.25;9.93;;;;;;;5.85;76.39;100839.91;2149500;82;21053;-85
2022/02/10 00:49:44;;;;;;;21.02;10.15;;;;;;;5.83;76.26;100835.75;2156131;82;21046;-84
2022/02/10 00:52:48;;;;;;;18.32;10.75;;;;;;;5.79;76.28;100835.12;2148879;82;20987;-85
2022/02/10 00:55:49;;;;;;;19.20;10.65;;;;;;;5.76;76.32;100832.73;2150585;82;21057;-84
2022/02/10 00:58:59;;;;;;;20.20;10.88;;;;;;;5.73;76.36;100836.09;2128279;82;21034;-84
2022/02/10 01:31:21;;;;;;;14.15;7.87;;;;;;;5.64;76.42;100821.83;2128306;82;21038;-83
2022/02/10 01:34:23;;;;;;;16.48;8.55;;;;;;;5.57;76.58;100817.98;2148937;82;21022;-84
2022/02/10 01:37:25;;;;;;;13.90;8.15;;;;;;;5.53;76.60;100804.70;2148751;82;20960;-85
2022/02/10 01:40:48;;;;;;;14.53;7.28;;;;;;;5.53;76.77;100798.12;2144435;82;21005;-85
2022/02/10 02:03:42;;;;;;;15.95;7.30;;;;;;;5.53;77.19;100784.96;2149190;82;20995;-84
2022/02/10 02:06:51;;;;;;;17.87;8.60;;;;;;;5.52;77.26;100784.58;2148458;82;21034;-85
2022/02/10 02:09:48;;;;;;;20.68;9.70;;;;;;;5.51;77.28;100777.17;2144869;82;21031;-86
2022/02/10 02:12:50;;;;;;;17.57;9.05;;;;;;;5.55;77.35;100773.84;2151808;82;21493;-87
2022/02/10 02:15:52;;;;;;;16.20;8.18;;;;;;;5.57;77.33;100771.42;2147696;82;21030;-85
2022/02/10 02:18:54;;;;;;;14.30;8.20;;;;;;;5.58;77.28;100761.27;2148136;82;21054;-84
2022/02/10 02:22:04;;;;;;;17.73;7.92;;;;;;;5.58;77.27;100758.64;2153341;82;20971;-86
2022/02/10 02:25:06;;;;;;;14.68;8.23;;;;;;;5.59;77.32;100756.84;2148352;82;21497;-82
2022/02/10 02:28:11;;;;;;;14.47;8.70;;;;;;;5.61;77.33;100754.45;2155259;82;21014;-84
2022/02/10 02:31:21;;;;;;;16.82;8.48;;;;;;;5.60;77.36;100747.52;2148655;82;21521;-84
2022/02/10 02:34:52;;;;;;;18.37;9.10;;;;;;;5.61;77.39;100748.36;2149487;82;21003;-86
2022/02/10 03:07:12;;;;;;;13.95;8.50;;;;;;;5.73;77.41;100734.70;2140808;82;21069;-84
2022/02/10 03:13:20;;;;;;;13.45;7.70;;;;;;;5.72;77.44;100739.63;2151806;82;21003;-86
2022/02/10 03:23:04;;;;;;;13.32;7.65;;;;;;;5.80;77.36;100738.06;2154854;82;21050;-86
2022/02/10 04:09:13;;;;;;;12.07;6.87;;;;;;;5.82;77.03;100733.48;2154936;82;21280;-84
2022/02/10 04:22:02;;;;;;;13.30;8.13;;;;;;;5.98;76.86;100741.06;2142593;82;21043;-86
2022/02/10 04:28:36;;;;;;;13.32;8.63;;;;;;;5.87;76.82;100748.94;2154216;82;21066;-84
2022/02/10 04:38:27;;;;;;;10.78;6.87;;;;;;;5.66;76.95;100743.58;2145708;82;21050;-86
2022/02/10 04:45:12;;;;;;;13.88;8.05;;;;;;;5.73;77.10;100742.61;2149435;82;21770;-84
2022/02/10 04:57:56;;;;;;;17.32;8.08;;;;;;;5.72;76.97;100719.88;2149635;82;21030;-83
2022/02/10 05:14:53;;;;;;;12.68;7.12;;;;;;;5.47;77.19;100717.84;2150407;81;21050;-83
2022/02/10 05:23:30;;;;;;;11.25;6.25;;;;;;;5.52;77.36;100700.34;2134501;82;21538;-83
2022/02/10 05:33:28;;;;;;;9.75;6.20;;;;;;;5.52;77.36;100710.42;2154210;82;21014;-86
2022/02/10 05:36:23;;;;;;;12.60;6.90;;;;;;;5.52;77.29;100698.58;2148594;82;20994;-86
2022/02/10 05:39:25;;;;;;;9.93;6.30;;;;;;;5.50;77.28;100699.17;2152303;82;21061;-84
2022/02/10 05:49:06;;;;;;;10.85;6.17;;;;;;;5.39;77.38;100694.73;2094068;82;21017;-87
2022/02/10 05:52:16;;;;;;;12.00;6.05;;;;;;;5.38;77.47;100700.13;2143822;82;20986;-85
2022/02/10 05:58:08;;;;;;;10.28;6.30;;;;;;;5.37;77.55;100694.00;2116308;82;21010;-85
2022/02/10 06:01:49;;;;;;;8.90;6.15;;;;;;;5.36;77.57;100688.40;2147548;82;21066;-83
2022/02/10 06:53:50;;;;;;;14.90;8.40;;;;;;;5.66;77.68;100667.22;2148859;82;21077;-87
2022/02/10 06:57:21;;;;;;;18.52;9.75;;;;;;;5.74;77.72;100670.05;2142812;82;21087;-87
2022/02/10 07:06:39;;;;;;;15.95;9.20;;;;;;;5.97;77.47;100660.82;2120630;82;21042;-87
2022/02/10 07:09:44;;;;;;;14.05;9.10;;;;;;;5.98;77.39;100658.08;2148664;82;21023;-84
2022/02/10 07:55:56;;;;;;;15.78;9.45;;;;;;;6.46;77.17;100640.52;2149605;82;21069;-84
2022/02/10 08:57:14;;;;;;;43.87;24.90;;;;;;;7.78;74.36;100611.20;2108732;82;21014;-81
2022/02/10 09:00:30;;;;;;;18.25;10.32;;;;;;;7.81;74.46;100605.64;2144988;82;21513;-80
2022/02/10 09:06:25;;;;;;;13.65;9.70;;;;;;;7.88;74.25;100600.63;2146378;82;21060;-82
2022/02/10 10:05:28;;;;;;;12.07;7.22;;;;;;;8.48;72.92;100547.98;2145919;82;20998;-85
2022/02/10 10:08:39;;;;;;;13.90;7.87;;;;;;;8.51;72.91;100546.86;2150176;82;20994;-81
2022/02/10 10:15:04;;;;;;;;;;;;;;;8.60;72.92;100523.52;2148463;81;20998;-84
2022/02/10 10:24:51;;;;;;;11.15;7.40;;;;;;;8.81;72.90;100506.09;2144486;81;20975;-85
2022/02/10 10:55:26;;;;;;;11.78;6.20;;;;;;;12.04;68.26;100423.08;2153991;80;20989;-87
2022/02/10 10:58:17;;;;;;;13.83;6.78;;;;;;;12.33;68.29;100415.03;2153118;80;21019;-83
2022/02/10 11:39:02;;;;;;;7.30;5.55;;;;;;;13.53;63.23;100333.46;2149824;82;21077;-82
2022/02/10 11:42:24;;;;;;;10.32;5.42;;;;;;;13.60;62.88;100328.56;2154222;82;21041;-82
2022/02/10 11:46:01;;;;;;;5.67;4.83;;;;;;;13.63;60.83;100319.38;2156379;82;21029;-83
2022/02/10 11:59:53;;;;;;;8.83;5.58;;;;;;;13.49;60.77;100314.83;2143455;82;21029;-82
2022/02/10 13:23:37;;;;;;;7.75;4.35;;;;;;;11.71;60.36;100167.06;1995415;85;21518;-85
2022/02/10 13:27:29;;;;;;;7.75;5.85;;;;;;;11.64;60.34;100154.98;2055392;85;21063;-82
2022/02/10 14:27:50;;;;;;;9.25;4.20;;;;;;;11.15;60.67;100091.89;1981079;87;20154;-84
2022/02/10 14:30:52;;;;;;;5.55;3.67;;;;;;;11.03;60.81;100087.45;2143672;82;21065;-82
2022/02/10 14:33:54;;;;;;;9.40;3.65;;;;;;;10.91;60.11;100092.30;2153972;82;21014;-81
2022/02/10 15:16:39;;;;;;;6.22;4.30;;;;;;;9.87;61.70;100096.92;2152677;82;21082;-83
2022/02/10 15:51:58;;;;;;;8.98;5.58;;;;;;;9.29;62.85;100113.14;2153505;80;21031;-84
2022/02/10 15:55:16;;;;;;;15.03;7.25;;;;;;;9.32;62.63;100118.11;2139580;82;21059;-83
2022/02/10 16:18:58;;;;;;;13.25;7.00;;;;;;;9.27;63.18;100112.45;2153869;80;21068;-85
2022/02/10 16:25:28;;;;;;;14.50;8.03;;;;;;;9.24;63.06;100125.19;1995462;86;21211;-81
2022/02/10 16:28:35;;;;;;;13.90;6.90;;;;;;;9.20;62.99;100128.13;2005642;86;21145;-87
2022/02/10 16:31:36;;;;;;;10.32;5.83;;;;;;;9.18;62.92;100127.97;2009688;86;21122;-87
2022/02/10 16:34:43;;;;;;;10.10;5.60;;;;;;;9.17;62.93;100121.00;1975947;86;21109;-81
2022/02/10 16:37:46;;;;;;;11.45;5.97;;;;;;;9.18;63.04;100123.50;1977275;86;21675;-84
2022/02/10 16:40:49;;;;;;;13.93;6.87;;;;;;;9.16;62.98;100129.94;2008906;86;21566;-81
2022/02/10 16:43:51;;;;;;;11.40;6.90;;;;;;;9.12;62.80;100123.28;2034800;86;21089;-79
2022/02/10 16:46:53;;;;;;;9.85;5.42;;;;;;;9.11;62.96;100119.81;2014408;86;21085;-85
2022/02/10 16:49:59;;;;;;;12.98;6.03;;;;;;;9.10;62.82;100127.92;2020104;86;21087;-84
2022/02/10 16:53:09;;;;;;;10.38;6.00;;;;;;;9.11;63.12;100138.34;2029782;86;21056;-84
2022/02/10 16:56:14;;;;;;;16.20;8.15;;;;;;;9.09;62.93;100136.83;2032701;86;21052;-84
2022/02/10 16:59:39;;;;;;;14.30;7.83;;;;;;;9.09;63.00;100132.86;2031184;85;21100;-84
2022/02/10 17:16:39;;;;;;;;;;;;;;;9.03;62.94;100128.20;2032459;85;21595;-84
2022/02/10 17:25:20;;;;;;;12.55;5.62;;;;;;;8.94;63.50;100128.14;2048435;85;21112;-84
2022/02/10 17:28:18;;;;;;;12.63;6.87;;;;;;;8.90;63.65;100141.37;2044340;85;21105;-84
2022/02/10 17:31:42;;;;;;;11.83;6.87;;;;;;;8.90;63.84;100148.48;2025940;85;21005;-84
2022/02/10 17:54:08;;;;;;;10.58;6.53;;;;;;;8.75;64.51;100160.09;2053840;85;21061;-86
2022/02/10 17:57:12;;;;;;;12.25;7.33;;;;;;;8.68;64.08;100144.52;2034805;85;21106;-84
2022/02/10 18:00:17;;;;;;;10.20;6.15;;;;;;;8.69;63.93;100159.39;2053327;84;21401;-85
2022/02/10 18:03:23;;;;;;;11.55;7.00;;;;;;;8.66;64.05;100166.31;2032498;85;21564;-84
2022/02/10 18:06:30;;;;;;;10.80;5.92;;;;;;;8.61;64.05;100163.29;1988287;85;21526;-84
2022/02/10 18:16:02;;;;;;;10.90;6.10;;;;;;;8.37;64.55;100171.33;2052244;85;21076;-84
2022/02/10 18:19:10;;;;;;;12.63;6.35;;;;;;;8.25;64.73;100172.05;2047602;85;21077;-84
2022/02/10 18:28:38;;;;;;;17.20;8.45;;;;;;;7.99;65.62;100182.49;2052972;84;21139;-79
2022/02/10 19:08:22;;;;;;;15.45;8.58;;;;;;;7.30;68.19;100248.47;2035333;85;21092;-84
2022/02/10 19:11:21;;;;;;;17.05;10.48;;;;;;;7.27;68.68;100242.65;2011818;85;21141;-87
2022/02/10 19:14:31;;;;;;;16.55;9.28;;;;;;;7.25;68.48;100255.15;2034428;85;21088;-84
2022/02/10 19:17:36;;;;;;;18.25;10.05;;;;;;;7.23;68.57;100257.09;2004122;85;21121;-83
2022/02/10 19:20:43;;;;;;;16.48;9.63;;;;;;;7.23;68.89;100257.09;2028441;85;21750;-84
2022/02/10 19:23:48;;;;;;;16.52;10.03;;;;;;;7.22;68.85;100264.67;2044736;85;21112;-80
2022/02/10 19:26:51;;;;;;;18.48;9.25;;;;;;;7.19;69.01;100261.83;2053398;85;21168;-81
2022/02/10 19:29:58;;;;;;;20.65;11.03;;;;;;;7.18;69.16;100271.55;2028959;85;21112;-83
2022/02/10 19:33:03;;;;;;;14.87;9.48;;;;;;;7.17;69.26;100273.83;2030803;86;21057;-79
2022/02/10 19:36:07;;;;;;;15.93;9.40;;;;;;;7.15;69.34;100267.02;2027803;85;21552;-83
2022/02/10 19:39:15;;;;;;;16.97;10.20;;;;;;;7.15;69.64;100274.94;2054701;85;21101;-80
2022/02/10 19:42:17;;;;;;;20.37;10.30;;;;;;;7.13;69.62;100272.95;2025882;85;21122;-82
2022/02/10 19:45:26;;;;;;;20.70;10.88;;;;;;;7.09;69.67;100275.02;1971116;88;21610;-83
2022/02/10 19:48:29;;;;;;;19.32;9.65;;;;;;;7.05;69.96;100284.20;1981687;88;21079;-86
2022/02/10 19:51:33;;;;;;;16.57;9.25;;;;;;;7.05;69.96;100284.20;1967442;87;21122;-84
2022/02/10 19:54:40;;;;;;;18.82;10.82;;;;;;;7.03;69.89;100292.73;1967946;88;21536;-84
2022/02/10 19:57:42;;;;;;;22.95;11.00;;;;;;;7.03;70.08;100298.50;2002665;87;21123;-84
2022/02/10 20:00:45;;;;;;;19.07;10.65;;;;;;;6.99;70.14;100303.23;2005961;87;21041;-85
2022/02/10 20:03:48;;;;;;;21.12;11.33;;;;;;;6.97;70.26;100307.80;2006418;87;21125;-84
2022/02/10 20:06:52;;;;;;;16.67;9.28;;;;;;;6.94;70.41;100310.72;1978232;87;21125;-84
2022/02/10 20:09:54;;;;;;;14.80;9.30;;;;;;;6.92;70.53;100316.61;1962411;88;21101;-84
2022/02/10 20:12:58;;;;;;;16.90;9.03;;;;;;;6.90;70.92;100317.26;2007576;87;21117;-85
2022/02/10 20:16:08;;;;;;;11.75;9.28;;;;;;;6.89;71.08;100318.21;1991716;85;21057;-83
2022/02/10 20:19:10;;;;;;;15.05;9.33;;;;;;;6.87;71.23;100319.69;2031976;85;21116;-85
2022/02/10 20:22:13;;;;;;;14.93;8.80;;;;;;;6.84;71.20;100323.92;2026490;86;21128;-84
2022/02/10 20:25:16;;;;;;;12.23;7.75;;;;;;;6.80;71.49;100323.83;2007537;86;21054;-86
2022/02/10 20:28:22;;;;;;;16.17;9.03;;;;;;;6.74;71.50;100334.44;2053731;85;21131;-83
2022/02/10 20:31:24;;;;;;;18.12;9.18;;;;;;;6.72;71.48;100327.63;2032532;85;21176;-86
2022/02/10 20:34:29;;;;;;;14.47;9.78;;;;;;;6.71;71.62;100337.84;1994633;86;21056;-84
2022/02/10 20:37:33;;;;;;;18.00;10.58;;;;;;;6.67;72.05;100337.29;2026365;86;21056;-84
2022/02/10 20:40:41;;;;;;;20.48;11.40;;;;;;;6.65;72.14;100341.86;2032909;85;21077;-84
2022/02/10 20:43:49;;;;;;;17.52;10.05;;;;;;;6.62;72.21;100347.89;2028192;85;21096;-84
2022/02/10 20:46:52;;;;;;;16.35;10.28;;;;;;;6.59;72.32;100346.81;2013134;86;21088;-83
2022/02/10 20:49:58;;;;;;;21.45;12.53;;;;;;;6.58;72.44;100345.16;2032463;86;21150;-86
2022/02/10 20:53:01;;;;;;;16.90;11.55;;;;;;;6.55;72.58;100344.95;2029386;86;21077;-84
2022/02/10 20:56:08;;;;;;;21.35;12.25;;;;;;;6.53;72.82;100348.69;2052659;85;21146;-85
2022/02/10 20:59:35;;;;;;;20.62;11.90;;;;;;;6.51;72.92;100355.42;2051499;85;21064;-84
2022/02/10 21:02:44;;;;;;;16.25;11.68;;;;;;;6.49;72.93;100359.99;2044226;85;21096;-84
2022/02/10 21:05:48;;;;;;;17.65;10.82;;;;;;;6.48;73.17;100355.70;2050513;85;21059;-84
2022/02/10 21:11:56;;;;;;;22.67;13.18;;;;;;;6.45;73.50;100348.89;2027877;86;21112;-85
2022/02/10 21:14:57;;;;;;;24.25;12.88;;;;;;;6.44;73.52;100347.20;2055301;85;21068;-85
2022/02/10 21:18:02;;;;;;;25.43;13.18;;;;;;;6.44;73.99;100354.28;2030163;85;21049;-83
2022/02/10 21:21:10;;;;;;;16.93;11.97;;;;;;;6.43;74.00;100347.35;2046506;85;21579;-84
2022/02/10 21:24:14;;;;;;;25.40;13.58;;;;;;;6.43;74.18;100352.13;2012063;85;21085;-84
2022/02/10 21:30:37;;;;;;;22.73;14.25;;;;;;;6.42;74.42;100345.66;2046177;85;21045;-83
2022/02/10 21:37:03;;;;;;;22.10;12.73;;;;;;;6.41;74.51;100354.55;2051851;85;21072;-83
2022/02/10 21:40:14;;;;;;;23.40;12.70;;;;;;;6.39;74.62;100353.38;2031244;85;21112;-85
2022/02/10 21:59:54;;;;;;;23.90;13.38;;;;;;;6.34;75.35;100378.47;2052752;85;20181;-86
2022/02/10 22:22:22;;;;;;;2.92;1.77;;;;;;;5.20;77.14;100434.02;2044092;86;21160;-82
2022/02/10 22:25:21;;;;;;;3.00;1.87;;;;;;;5.08;77.37;100437.66;2044584;86;21056;-83
2022/02/10 22:31:49;;;;;;;3.55;2.00;;;;;;;4.85;77.94;100438.19;2057786;84;21068;-82
2022/02/10 22:34:51;;;;;;;3.92;2.30;;;;;;;4.73;78.24;100430.80;2054454;85;21080;-82
2022/02/10 22:37:56;;;;;;;2.45;2.22;;;;;;;4.68;78.16;100432.95;2031006;85;21136;-83
2022/02/10 22:41:04;;;;;;;4.87;2.00;;;;;;;4.66;78.24;100429.59;2028884;86;21140;-82
2022/02/10 22:44:07;;;;;;;3.45;1.52;;;;;;;4.61;78.87;100437.00;2049672;85;21018;-82
2022/02/10 22:47:12;;;;;;;2.65;1.70;;;;;;;4.61;78.57;100435.20;2032383;85;21473;-82
2022/02/10 22:50:13;;;;;;;3.85;1.98;;;;;;;4.63;78.61;100433.30;2029270;86;21076;-83
2022/02/10 22:53:18;;;;;;;3.30;2.25;;;;;;;4.64;78.50;100433.64;2047207;86;21084;-83
2022/02/10 22:56:29;;;;;;;3.22;2.50;;;;;;;4.63;78.71;100439.87;2008444;86;21131;-83
2022/02/10 22:59:29;;;;;;;2.70;1.90;;;;;;;4.61;78.59;100440.94;2048602;85;21130;-83
2022/02/10 23:02:35;;;;;;;2.62;1.85;;;;;;;4.59;78.47;100438.91;2050246;86;21002;-83
2022/02/10 23:05:41;;;;;;;2.75;1.82;;;;;;;4.60;78.58;100442.73;2028466;86;21564;-83
2022/02/10 23:08:45;;;;;;;2.30;1.70;;;;;;;4.65;78.54;100449.80;2029215;86;21052;-83
2022/02/10 23:11:53;;;;;;;2.70;2.15;;;;;;;4.75;78.60;100457.78;2011289;86;21147;-83
2022/02/10 23:14:58;;;;;;;2.85;2.00;;;;;;;4.82;78.45;100455.52;2052366;85;21085;-83
2022/02/10 23:18:08;;;;;;;3.92;2.85;;;;;;;4.87;78.40;100455.52;2027595;86;21104;-83
2022/02/10 23:21:14;;;;;;;3.72;2.45;;;;;;;4.97;78.38;100452.14;2027759;86;21097;-83
2022/02/10 23:24:17;;;;;;;4.92;2.85;;;;;;;5.04;78.34;100444.10;2029349;86;21016;-83
2022/02/10 23:27:21;;;;;;;3.65;2.40;;;;;;;5.10;78.29;100444.47;2027657;86;21034;-82
2022/02/10 23:30:29;;;;;;;3.27;2.10;;;;;;;5.14;78.18;100451.63;2052693;84;21076;-83
2022/02/10 23:33:37;;;;;;;3.92;2.50;;;;;;;5.16;78.05;100453.17;2048095;86;21512;-85
2022/02/10 23:36:48;;;;;;;3.42;3.00;;;;;;;5.13;78.01;100452.11;2044053;86;21060;-83
2022/02/10 23:39:50;;;;;;;5.50;3.58;;;;;;;5.11;77.95;100457.96;2051322;86;21049;-83
2022/02/10 23:42:54;;;;;;;6.25;3.72;;;;;;;5.14;78.02;100460.83;2046849;86;21014;-83
2022/02/10 23:45:57;;;;;;;4.40;3.40;;;;;;;5.10;77.87;100460.25;2033824;86;21084;-83
2022/02/10 23:49:00;;;;;;;4.97;2.83;;;;;;;5.11;77.93;100467.66;1989537;86;21627;-85
2022/02/10 23:52:06;;;;;;;3.37;2.75;;;;;;;5.04;77.80;100466.45;2050600;86;21622;-83
2022/02/10 23:55:19;;;;;;;2.95;2.30;;;;;;;5.02;78.07;100461.34;2011688;86;21044;-84
